sensor_id;sensor_type;location;lat;lon;timestamp;pressure;altitude;pressure_sealevel;temperature;humidity
20444;BME280;10381;53.730;10.010;2023-03-25T00:00:13;99566.69;;;7.67;100.00
20444;BME280;10381;53.730;10.010;2023-03-25T00:04:17;99561.19;;;7.51;100.00
20444;BME280;10381;53.730;10.010;2023-03-25T00:08:17;99561.25;;;7.41;100.00
20444;BME280;10381;53.730;10.010;2023-03-25T00:12:17;99554.50;;;7.29;100.00
20444;BME280;10381;53.730;10.010;2023-03-25T00:16:18;99562.13;;;7.32;100.00
20444;BME280;10381;53.730;10.010;2023-03-25T00:20:18;99566.25;;;7.35;100.00
20444;BME280;10381;53.730;10.010;2023-03-25T00:24:19;99562.63;;;7.36;100.00
20444;BME280;10381;53.730;10.010;2023-03-25T00:28:19;99573.72;;;7.39;100.00
20444;BME280;10381;53.730;10.010;2023-03-25T00:32:20;99561.13;;;7.33;100.00
20444;BME280;10381;53.730;10.010;2023-03-25T00:36:20;99561.28;;;7.32;100.00
20444;BME280;10381;53.730;10.010;2023-03-25T00:40:21;99560.69;;;7.38;100.00
20444;BME280;10381;53.730;10.010;2023-03-25T00:44:21;99556.84;;;7.32;100.00
20444;BME280;10381;53.730;10.010;2023-03-25T00:48:22;99546.31;;;7.32;100.00
20444;BME280;10381;53.730;10.010;2023-03-25T00:52:22;99549.63;;;7.34;100.00
20444;BME280;10381;53.730;10.010;2023-03-25T00:56:23;99546.56;;;7.39;100.00
20444;BME280;10381;53.730;10.010;2023-03-25T01:00:23;99533.16;;;7.50;100.00
20444;BME280;10381;53.730;10.010;2023-03-25T01:04:24;99537.91;;;7.46;100.00
20444;BME280;10381;53.730;10.010;2023-03-25T01:08:24;99532.03;;;7.53;100.00
20444;BME280;10381;53.730;10.010;2023-03-25T01:12:28;99535.25;;;7.56;100.00
20444;BME280;10381;53.730;10.010;2023-03-25T01:16:29;99527.28;;;7.66;100.00
20444;BME280;10381;53.730;10.010;2023-03-25T01:20:29;99522.69;;;7.68;100.00
20444;BME280;10381;53.730;10.010;2023-03-25T01:24:30;99524.34;;;7.69;100.00
20444;BME280;10381;53.730;10.010;2023-03-25T01:28:30;99512.53;;;7.73;100.00
20444;BME280;10381;53.730;10.010;2023-03-25T01:32:30;99512.31;;;7.84;100.00
20444;BME280;10381;53.730;10.010;2023-03-25T01:36:31;99512.84;;;7.88;100.00
20444;BME280;10381;53.730;10.010;2023-03-25T01:40:31;99498.22;;;7.94;100.00
20444;BME280;10381;53.730;10.010;2023-03-25T01:48:37;99489.47;;;7.93;100.00
20444;BME280;10381;53.730;10.010;2023-03-25T01:52:44;99487.22;;;7.98;100.00
20444;BME280;10381;53.730;10.010;2023-03-25T01:56:47;99470.75;;;7.96;100.00
20444;BME280;10381;53.730;10.010;2023-03-25T02:00:48;99480.59;;;8.12;100.00
20444;BME280;10381;53.730;10.010;2023-03-25T02:04:56;99462.50;;;8.17;100.00
20444;BME280;10381;53.730;10.010;2023-03-25T02:09:02;99457.75;;;8.21;100.00
20444;BME280;10381;53.730;10.010;2023-03-25T02:13:04;99441.38;;;8.35;100.00
20444;BME280;10381;53.730;10.010;2023-03-25T02:30:33;99437.31;;;8.23;100.00
20444;BME280;10381;53.730;10.010;2023-03-25T02:43:31;99430.00;;;8.17;100.00
20444;BME280;10381;53.730;10.010;2023-03-25T02:47:37;99424.81;;;8.07;100.00
20444;BME280;10381;53.730;10.010;2023-03-25T02:51:53;99424.50;;;8.10;100.00
20444;BME280;10381;53.730;10.010;2023-03-25T02:55:59;99417.06;;;8.05;100.00
20444;BME280;10381;53.730;10.010;2023-03-25T03:00:04;99422.66;;;8.02;100.00
20444;BME280;10381;53.730;10.010;2023-03-25T03:04:09;99410.72;;;7.98;100.00
20444;BME280;10381;53.730;10.010;2023-03-25T03:08:29;99420.19;;;7.83;100.00
20444;BME280;10381;53.730;10.010;2023-03-25T03:17:10;99411.59;;;7.99;100.00
20444;BME280;10381;53.730;10.010;2023-03-25T03:21:16;99424.47;;;8.02;100.00
20444;BME280;10381;53.730;10.010;2023-03-25T03:25:28;99420.00;;;8.02;100.00
20444;BME280;10381;53.730;10.010;2023-03-25T03:29:37;99416.84;;;7.99;100.00
20444;BME280;10381;53.730;10.010;2023-03-25T03:33:45;99420.50;;;7.80;100.00
20444;BME280;10381;53.730;10.010;2023-03-25T03:37:54;99422.94;;;7.81;100.00
20444;BME280;10381;53.730;10.010;2023-03-25T03:42:02;99424.00;;;7.88;100.00
20444;BME280;10381;53.730;10.010;2023-03-25T03:46:12;99422.31;;;7.79;100.00
20444;BME280;10381;53.730;10.010;2023-03-25T03:50:18;99423.41;;;7.77;100.00
20444;BME280;10381;53.730;10.010;2023-03-25T03:54:25;99414.16;;;7.73;100.00
20444;BME280;10381;53.730;10.010;2023-03-25T03:58:33;99409.09;;;7.61;100.00
20444;BME280;10381;53.730;10.010;2023-03-25T04:06:48;99408.72;;;7.56;100.00
20444;BME280;10381;53.730;10.010;2023-03-25T04:11:00;99411.88;;;7.60;100.00
20444;BME280;10381;53.730;10.010;2023-03-25T04:15:04;99411.59;;;7.63;100.00
20444;BME280;10381;53.730;10.010;2023-03-25T04:19:05;99420.53;;;7.52;100.00
20444;BME280;10381;53.730;10.010;2023-03-25T04:23:05;99415.06;;;7.63;100.00
20444;BME280;10381;53.730;10.010;2023-03-25T04:27:08;99412.47;;;7.72;100.00
20444;BME280;10381;53.730;10.010;2023-03-25T04:31:14;99417.47;;;7.75;100.00
20444;BME280;10381;53.730;10.010;2023-03-25T04:35:15;99423.41;;;7.77;100.00
20444;BME280;10381;53.730;10.010;2023-03-25T04:39:17;99420.13;;;7.75;100.00
20444;BME280;10381;53.730;10.010;2023-03-25T04:43:21;99428.09;;;7.83;100.00
20444;BME280;10381;53.730;10.010;2023-03-25T04:47:23;99433.44;;;7.73;100.00
20444;BME280;10381;53.730;10.010;2023-03-25T04:51:23;99451.47;;;7.50;100.00
20444;BME280;10381;53.730;10.010;2023-03-25T04:55:24;99469.44;;;7.09;100.00
20444;BME280;10381;53.730;10.010;2023-03-25T04:59:24;99483.16;;;6.75;100.00
20444;BME280;10381;53.730;10.010;2023-03-25T05:03:26;99495.13;;;6.60;100.00
20444;BME280;10381;53.730;10.010;2023-03-25T05:07:26;99510.78;;;6.52;100.00
20444;BME280;10381;53.730;10.010;2023-03-25T05:11:30;99524.09;;;6.40;100.00
20444;BME280;10381;53.730;10.010;2023-03-25T05:15:32;99521.31;;;6.32;100.00
20444;BME280;10381;53.730;10.010;2023-03-25T05:19:34;99528.38;;;6.32;100.00
20444;BME280;10381;53.730;10.010;2023-03-25T05:23:34;99513.56;;;6.31;100.00
20444;BME280;10381;53.730;10.010;2023-03-25T05:27:35;99513.41;;;6.32;100.00
20444;BME280;10381;53.730;10.010;2023-03-25T05:31:36;99515.22;;;6.42;100.00
20444;BME280;10381;53.730;10.010;2023-03-25T05:35:37;99512.72;;;6.50;100.00
20444;BME280;10381;53.730;10.010;2023-03-25T05:39:37;99510.50;;;6.55;100.00
20444;BME280;10381;53.730;10.010;2023-03-25T05:43:38;99512.97;;;6.56;100.00
20444;BME280;10381;53.730;10.010;2023-03-25T05:47:38;99513.25;;;6.63;100.00
20444;BME280;10381;53.730;10.010;2023-03-25T05:51:39;99512.94;;;6.66;100.00
20444;BME280;10381;53.730;10.010;2023-03-25T05:55:39;99517.66;;;6.72;100.00
20444;BME280;10381;53.730;10.010;2023-03-25T05:59:40;99526.13;;;6.76;100.00
20444;BME280;10381;53.730;10.010;2023-03-25T06:03:41;99513.19;;;6.82;100.00
20444;BME280;10381;53.730;10.010;2023-03-25T06:07:44;99517.22;;;6.87;100.00
20444;BME280;10381;53.730;10.010;2023-03-25T06:11:46;99525.50;;;6.92;100.00
20444;BME280;10381;53.730;10.010;2023-03-25T06:15:52;99520.25;;;6.92;100.00
20444;BME280;10381;53.730;10.010;2023-03-25T06:19:56;99512.75;;;6.97;100.00
20444;BME280;10381;53.730;10.010;2023-03-25T06:23:57;99509.69;;;7.01;100.00
20444;BME280;10381;53.730;10.010;2023-03-25T06:27:58;99518.22;;;7.13;100.00
20444;BME280;10381;53.730;10.010;2023-03-25T06:32:03;99522.81;;;7.11;100.00
20444;BME280;10381;53.730;10.010;2023-03-25T06:36:03;99522.50;;;7.14;100.00
20444;BME280;10381;53.730;10.010;2023-03-25T06:40:04;99527.78;;;7.14;100.00
20444;BME280;10381;53.730;10.010;2023-03-25T06:44:05;99536.09;;;7.19;100.00
20444;BME280;10381;53.730;10.010;2023-03-25T06:48:05;99526.66;;;7.27;100.00
20444;BME280;10381;53.730;10.010;2023-03-25T06:52:06;99515.22;;;7.36;100.00
20444;BME280;10381;53.730;10.010;2023-03-25T06:56:06;99504.69;;;7.36;100.00
20444;BME280;10381;53.730;10.010;2023-03-25T07:00:07;99505.13;;;7.59;100.00
20444;BME280;10381;53.730;10.010;2023-03-25T07:04:09;99501.16;;;7.73;100.00
20444;BME280;10381;53.730;10.010;2023-03-25T07:08:09;99490.31;;;7.76;100.00
20444;BME280;10381;53.730;10.010;2023-03-25T07:12:09;99487.66;;;7.76;100.00
20444;BME280;10381;53.730;10.010;2023-03-25T07:16:10;99493.19;;;7.82;100.00
20444;BME280;10381;53.730;10.010;2023-03-25T07:20:10;99483.53;;;8.09;100.00
20444;BME280;10381;53.730;10.010;2023-03-25T07:24:11;99486.31;;;8.25;100.00
20444;BME280;10381;53.730;10.010;2023-03-25T07:28:11;99485.19;;;8.28;100.00
20444;BME280;10381;53.730;10.010;2023-03-25T07:32:12;99484.56;;;8.34;100.00
20444;BME280;10381;53.730;10.010;2023-03-25T07:36:12;99484.56;;;8.52;100.00
20444;BME280;10381;53.730;10.010;2023-03-25T07:40:13;99482.78;;;8.61;100.00
20444;BME280;10381;53.730;10.010;2023-03-25T07:44:13;99478.84;;;8.57;100.00
20444;BME280;10381;53.730;10.010;2023-03-25T07:48:14;99481.91;;;8.34;100.00
20444;BME280;10381;53.730;10.010;2023-03-25T07:52:15;99484.56;;;8.34;100.00
20444;BME280;10381;53.730;10.010;2023-03-25T07:56:15;99489.53;;;8.37;100.00
20444;BME280;10381;53.730;10.010;2023-03-25T08:00:16;99475.97;;;8.32;100.00
20444;BME280;10381;53.730;10.010;2023-03-25T08:04:16;99497.22;;;8.13;100.00
20444;BME280;10381;53.730;10.010;2023-03-25T08:08:16;99492.28;;;8.27;100.00
20444;BME280;10381;53.730;10.010;2023-03-25T08:12:17;99479.34;;;8.60;100.00
20444;BME280;10381;53.730;10.010;2023-03-25T08:16:17;99471.22;;;8.36;100.00
20444;BME280;10381;53.730;10.010;2023-03-25T08:20:17;99486.13;;;8.63;100.00
20444;BME280;10381;53.730;10.010;2023-03-25T08:24:18;99477.25;;;8.72;100.00
20444;BME280;10381;53.730;10.010;2023-03-25T08:28:19;99465.81;;;8.63;100.00
20444;BME280;10381;53.730;10.010;2023-03-25T08:32:23;99484.00;;;8.66;100.00
20444;BME280;10381;53.730;10.010;2023-03-25T08:36:25;99501.53;;;8.31;100.00
20444;BME280;10381;53.730;10.010;2023-03-25T08:40:26;99503.03;;;7.98;100.00
20444;BME280;10381;53.730;10.010;2023-03-25T08:44:27;99516.28;;;7.71;100.00
20444;BME280;10381;53.730;10.010;2023-03-25T08:48:27;99525.22;;;7.60;100.00
20444;BME280;10381;53.730;10.010;2023-03-25T08:52:27;99528.34;;;7.73;100.00
20444;BME280;10381;53.730;10.010;2023-03-25T08:56:27;99539.31;;;7.68;100.00
20444;BME280;10381;53.730;10.010;2023-03-25T09:00:28;99550.06;;;7.85;100.00
20444;BME280;10381;53.730;10.010;2023-03-25T09:04:28;99549.34;;;8.10;100.00
20444;BME280;10381;53.730;10.010;2023-03-25T09:08:29;99543.91;;;7.94;100.00
20444;BME280;10381;53.730;10.010;2023-03-25T09:12:32;99555.72;;;7.90;100.00
20444;BME280;10381;53.730;10.010;2023-03-25T09:16:32;99558.50;;;7.88;100.00
20444;BME280;10381;53.730;10.010;2023-03-25T09:20:33;99560.75;;;7.83;100.00
20444;BME280;10381;53.730;10.010;2023-03-25T09:24:33;99547.41;;;7.85;100.00
20444;BME280;10381;53.730;10.010;2023-03-25T09:28:34;99546.28;;;7.87;100.00
20444;BME280;10381;53.730;10.010;2023-03-25T09:32:35;99531.97;;;7.72;100.00
20444;BME280;10381;53.730;10.010;2023-03-25T09:36:35;99524.97;;;7.81;100.00
20444;BME280;10381;53.730;10.010;2023-03-25T09:40:36;99516.31;;;8.24;100.00
20444;BME280;10381;53.730;10.010;2023-03-25T09:48:59;99491.22;;;7.84;100.00
20444;BME280;10381;53.730;10.010;2023-03-25T09:57:07;99492.13;;;7.93;100.00
20444;BME280;10381;53.730;10.010;2023-03-25T10:01:38;99498.00;;;7.87;100.00
20444;BME280;10381;53.730;10.010;2023-03-25T10:05:49;99499.81;;;8.04;100.00
20444;BME280;10381;53.730;10.010;2023-03-25T10:14:56;99491.53;;;7.99;100.00
20444;BME280;10381;53.730;10.010;2023-03-25T10:23:36;99488.03;;;8.79;100.00
20444;BME280;10381;53.730;10.010;2023-03-25T10:27:44;99490.91;;;8.85;100.00
20444;BME280;10381;53.730;10.010;2023-03-25T10:31:52;99485.56;;;9.46;100.00
20444;BME280;10381;53.730;10.010;2023-03-25T10:35:54;99487.53;;;9.44;100.00
20444;BME280;10381;53.730;10.010;2023-03-25T10:40:11;99487.84;;;9.41;100.00
20444;BME280;10381;53.730;10.010;2023-03-25T10:44:12;99484.53;;;9.38;100.00
20444;BME280;10381;53.730;10.010;2023-03-25T10:52:20;99477.28;;;9.49;100.00
20444;BME280;10381;53.730;10.010;2023-03-25T10:56:28;99475.09;;;9.02;100.00
20444;BME280;10381;53.730;10.010;2023-03-25T11:00:28;99472.78;;;8.99;100.00
20444;BME280;10381;53.730;10.010;2023-03-25T11:04:33;99466.13;;;9.21;100.00
20444;BME280;10381;53.730;10.010;2023-03-25T11:08:36;99468.09;;;9.18;100.00
20444;BME280;10381;53.730;10.010;2023-03-25T11:12:36;99471.75;;;8.91;100.00
20444;BME280;10381;53.730;10.010;2023-03-25T11:16:47;99493.63;;;8.14;100.00
20444;BME280;10381;53.730;10.010;2023-03-25T11:20:50;99527.41;;;7.64;100.00
20444;BME280;10381;53.730;10.010;2023-03-25T11:24:53;99579.38;;;6.97;100.00
20444;BME280;10381;53.730;10.010;2023-03-25T11:29:04;99608.28;;;6.50;100.00
20444;BME280;10381;53.730;10.010;2023-03-25T11:33:11;99608.09;;;6.23;100.00
20444;BME280;10381;53.730;10.010;2023-03-25T11:37:20;99616.25;;;6.10;100.00
20444;BME280;10381;53.730;10.010;2023-03-25T11:41:21;99590.25;;;6.07;100.00
20444;BME280;10381;53.730;10.010;2023-03-25T11:45:31;99595.63;;;6.73;100.00
20444;BME280;10381;53.730;10.010;2023-03-25T11:49:34;99596.19;;;7.71;100.00
20444;BME280;10381;53.730;10.010;2023-03-25T11:53:46;99577.97;;;7.50;100.00
20444;BME280;10381;53.730;10.010;2023-03-25T11:57:49;99576.38;;;8.13;100.00
20444;BME280;10381;53.730;10.010;2023-03-25T12:01:51;99565.69;;;8.32;100.00
20444;BME280;10381;53.730;10.010;2023-03-25T12:10:06;99545.09;;;8.36;100.00
20444;BME280;10381;53.730;10.010;2023-03-25T12:31:44;99525.13;;;8.33;100.00
20444;BME280;10381;53.730;10.010;2023-03-25T12:35:56;99513.34;;;8.89;100.00
20444;BME280;10381;53.730;10.010;2023-03-25T12:40:46;99490.91;;;9.70;100.00
20444;BME280;10381;53.730;10.010;2023-03-25T12:49:01;99465.88;;;8.27;100.00
20444;BME280;10381;53.730;10.010;2023-03-25T13:06:38;99521.50;;;7.80;100.00
20444;BME280;10381;53.730;10.010;2023-03-25T13:10:42;99551.47;;;7.52;100.00
20444;BME280;10381;53.730;10.010;2023-03-25T13:15:32;99554.34;;;7.31;100.00
20444;BME280;10381;53.730;10.010;2023-03-25T13:19:15;99554.75;;;6.89;100.00
20444;BME280;10381;53.730;10.010;2023-03-25T13:23:18;99561.97;;;6.87;100.00
20444;BME280;10381;53.730;10.010;2023-03-25T13:27:21;99567.41;;;6.56;100.00
20444;BME280;10381;53.730;10.010;2023-03-25T13:31:25;99585.28;;;6.43;100.00
20444;BME280;10381;53.730;10.010;2023-03-25T13:39:53;99567.13;;;6.30;100.00
20444;BME280;10381;53.730;10.010;2023-03-25T13:43:56;99585.53;;;6.39;100.00
20444;BME280;10381;53.730;10.010;2023-03-25T13:48:10;99586.50;;;6.68;100.00
20444;BME280;10381;53.730;10.010;2023-03-25T13:52:13;99580.66;;;7.40;100.00
20444;BME280;10381;53.730;10.010;2023-03-25T14:13:35;99553.16;;;7.15;100.00
20444;BME280;10381;53.730;10.010;2023-03-25T14:17:38;99551.00;;;7.01;100.00
20444;BME280;10381;53.730;10.010;2023-03-25T14:21:45;99566.09;;;6.99;100.00
20444;BME280;10381;53.730;10.010;2023-03-25T14:25:55;99568.63;;;6.91;100.00
20444;BME280;10381;53.730;10.010;2023-03-25T14:50:31;99543.94;;;7.39;100.00
20444;BME280;10381;53.730;10.010;2023-03-25T14:54:33;99535.38;;;7.55;100.00
20444;BME280;10381;53.730;10.010;2023-03-25T14:58:36;99545.41;;;7.51;100.00
20444;BME280;10381;53.730;10.010;2023-03-25T15:02:39;99543.72;;;7.50;100.00
20444;BME280;10381;53.730;10.010;2023-03-25T15:06:41;99547.59;;;7.56;100.00
20444;BME280;10381;53.730;10.010;2023-03-25T15:11:00;99544.97;;;7.56;100.00
20444;BME280;10381;53.730;10.010;2023-03-25T15:15:24;99547.59;;;7.56;100.00
20444;BME280;10381;53.730;10.010;2023-03-25T15:19:25;99546.16;;;7.61;100.00
20444;BME280;10381;53.730;10.010;2023-03-25T15:23:31;99541.50;;;7.55;100.00
20444;BME280;10381;53.730;10.010;2023-03-25T15:31:59;99528.06;;;7.49;100.00
20444;BME280;10381;53.730;10.010;2023-03-25T15:36:09;99533.44;;;7.29;100.00
20444;BME280;10381;53.730;10.010;2023-03-25T15:49:39;99512.34;;;7.29;100.00
20444;BME280;10381;53.730;10.010;2023-03-25T15:54:15;99511.88;;;7.06;100.00
20444;BME280;10381;53.730;10.010;2023-03-25T15:58:26;99508.84;;;7.01;100.00
20444;BME280;10381;53.730;10.010;2023-03-25T16:02:41;99520.91;;;7.03;100.00
20444;BME280;10381;53.730;10.010;2023-03-25T16:06:47;99520.06;;;7.03;100.00
20444;BME280;10381;53.730;10.010;2023-03-25T16:10:48;99539.34;;;7.03;100.00
20444;BME280;10381;53.730;10.010;2023-03-25T16:14:50;99543.91;;;7.01;100.00
20444;BME280;10381;53.730;10.010;2023-03-25T16:18:51;99552.00;;;6.80;100.00
20444;BME280;10381;53.730;10.010;2023-03-25T16:22:55;99543.34;;;6.31;100.00
20444;BME280;10381;53.730;10.010;2023-03-25T16:26:56;99555.91;;;6.08;100.00
20444;BME280;10381;53.730;10.010;2023-03-25T16:30:57;99546.09;;;6.10;100.00
20444;BME280;10381;53.730;10.010;2023-03-25T16:34:57;99539.03;;;6.11;100.00
20444;BME280;10381;53.730;10.010;2023-03-25T16:38:58;99548.72;;;6.10;100.00
20444;BME280;10381;53.730;10.010;2023-03-25T16:43:03;99547.59;;;6.13;100.00
20444;BME280;10381;53.730;10.010;2023-03-25T16:47:05;99536.13;;;6.14;100.00
20444;BME280;10381;53.730;10.010;2023-03-25T16:51:14;99538.78;;;6.24;100.00
20444;BME280;10381;53.730;10.010;2023-03-25T16:55:29;99525.34;;;6.27;100.00
20444;BME280;10381;53.730;10.010;2023-03-25T16:59:35;99536.41;;;6.30;100.00
20444;BME280;10381;53.730;10.010;2023-03-25T17:03:47;99528.53;;;6.30;100.00
20444;BME280;10381;53.730;10.010;2023-03-25T17:07:56;99517.44;;;6.27;100.00
20444;BME280;10381;53.730;10.010;2023-03-25T17:12:00;99508.44;;;6.10;100.00
20444;BME280;10381;53.730;10.010;2023-03-25T17:16:01;99504.69;;;5.93;100.00
20444;BME280;10381;53.730;10.010;2023-03-25T17:20:05;99503.59;;;5.95;100.00
20444;BME280;10381;53.730;10.010;2023-03-25T17:24:21;99506.06;;;5.87;100.00
20444;BME280;10381;53.730;10.010;2023-03-25T17:28:40;99500.09;;;5.85;100.00
20444;BME280;10381;53.730;10.010;2023-03-25T17:32:43;99487.25;;;5.82;100.00
20444;BME280;10381;53.730;10.010;2023-03-25T17:36:45;99490.00;;;5.81;100.00
20444;BME280;10381;53.730;10.010;2023-03-25T17:41:00;99489.19;;;5.80;100.00
20444;BME280;10381;53.730;10.010;2023-03-25T17:45:01;99494.56;;;5.79;100.00
20444;BME280;10381;53.730;10.010;2023-03-25T17:49:12;99506.06;;;5.78;100.00
20444;BME280;10381;53.730;10.010;2023-03-25T17:53:13;99505.47;;;5.74;100.00
20444;BME280;10381;53.730;10.010;2023-03-25T17:57:15;99507.16;;;5.75;100.00
20444;BME280;10381;53.730;10.010;2023-03-25T18:01:16;99497.31;;;5.77;100.00
20444;BME280;10381;53.730;10.010;2023-03-25T18:05:18;99503.56;;;5.76;100.00
20444;BME280;10381;53.730;10.010;2023-03-25T18:09:22;99506.72;;;5.80;100.00
20444;BME280;10381;53.730;10.010;2023-03-25T18:13:23;99504.66;;;5.83;100.00
20444;BME280;10381;53.730;10.010;2023-03-25T18:17:24;99515.59;;;5.88;100.00
20444;BME280;10381;53.730;10.010;2023-03-25T18:21:24;99523.06;;;5.93;100.00
20444;BME280;10381;53.730;10.010;2023-03-25T18:25:25;99511.47;;;5.95;100.00
20444;BME280;10381;53.730;10.010;2023-03-25T18:29:26;99501.94;;;5.94;100.00
20444;BME280;10381;53.730;10.010;2023-03-25T18:33:29;99512.47;;;5.94;100.00
20444;BME280;10381;53.730;10.010;2023-03-25T18:37:33;99500.03;;;5.96;100.00
20444;BME280;10381;53.730;10.010;2023-03-25T18:41:34;99506.91;;;5.97;100.00
20444;BME280;10381;53.730;10.010;2023-03-25T18:45:34;99515.50;;;6.00;100.00
20444;BME280;10381;53.730;10.010;2023-03-25T18:49:36;99513.28;;;6.05;100.00
20444;BME280;10381;53.730;10.010;2023-03-25T18:53:36;99519.94;;;6.09;100.00
20444;BME280;10381;53.730;10.010;2023-03-25T18:57:37;99527.84;;;6.09;100.00
20444;BME280;10381;53.730;10.010;2023-03-25T19:01:37;99533.75;;;6.11;100.00
20444;BME280;10381;53.730;10.010;2023-03-25T19:05:40;99527.97;;;6.07;100.00
20444;BME280;10381;53.730;10.010;2023-03-25T19:09:40;99537.66;;;6.07;100.00
20444;BME280;10381;53.730;10.010;2023-03-25T19:13:41;99542.91;;;6.07;100.00
20444;BME280;10381;53.730;10.010;2023-03-25T19:17:43;99540.28;;;6.07;100.00
20444;BME280;10381;53.730;10.010;2023-03-25T19:21:44;99549.97;;;6.06;100.00
20444;BME280;10381;53.730;10.010;2023-03-25T19:25:46;99550.66;;;6.08;100.00
20444;BME280;10381;53.730;10.010;2023-03-25T19:29:47;99547.06;;;6.09;100.00
20444;BME280;10381;53.730;10.010;2023-03-25T19:33:49;99553.97;;;6.10;100.00
20444;BME280;10381;53.730;10.010;2023-03-25T19:37:50;99552.88;;;6.13;100.00
20444;BME280;10381;53.730;10.010;2023-03-25T19:41:50;99556.34;;;6.13;100.00
20444;BME280;10381;53.730;10.010;2023-03-25T19:45:54;99560.63;;;6.14;100.00
20444;BME280;10381;53.730;10.010;2023-03-25T19:49:55;99566.44;;;6.18;100.00
20444;BME280;10381;53.730;10.010;2023-03-25T19:53:55;99571.69;;;6.18;100.00
20444;BME280;10381;53.730;10.010;2023-03-25T19:57:57;99563.53;;;6.21;100.00
20444;BME280;10381;53.730;10.010;2023-03-25T20:01:57;99572.25;;;6.22;100.00
20444;BME280;10381;53.730;10.010;2023-03-25T20:06:00;99566.88;;;6.23;100.00
20444;BME280;10381;53.730;10.010;2023-03-25T20:10:01;99582.50;;;6.25;100.00
20444;BME280;10381;53.730;10.010;2023-03-25T20:14:01;99582.38;;;6.26;100.00
20444;BME280;10381;53.730;10.010;2023-03-25T20:18:02;99584.44;;;6.23;100.00
20444;BME280;10381;53.730;10.010;2023-03-25T20:22:02;99588.44;;;6.17;100.00
20444;BME280;10381;53.730;10.010;2023-03-25T20:26:03;99591.59;;;6.11;100.00
20444;BME280;10381;53.730;10.010;2023-03-25T20:30:05;99591.59;;;6.11;100.00
20444;BME280;10381;53.730;10.010;2023-03-25T20:34:05;99590.66;;;6.12;100.00
20444;BME280;10381;53.730;10.010;2023-03-25T20:38:06;99607.53;;;6.09;100.00
20444;BME280;10381;53.730;10.010;2023-03-25T20:42:08;99602.69;;;6.14;100.00
20444;BME280;10381;53.730;10.010;2023-03-25T20:46:08;99608.78;;;6.15;100.00
20444;BME280;10381;53.730;10.010;2023-03-25T20:50:14;99606.97;;;6.15;100.00
20444;BME280;10381;53.730;10.010;2023-03-25T20:54:15;99618.78;;;6.21;100.00
20444;BME280;10381;53.730;10.010;2023-03-25T20:58:15;99629.28;;;6.21;100.00
20444;BME280;10381;53.730;10.010;2023-03-25T21:02:16;99627.91;;;6.17;100.00
20444;BME280;10381;53.730;10.010;2023-03-25T21:06:18;99635.91;;;6.15;100.00
20444;BME280;10381;53.730;10.010;2023-03-25T21:10:19;99638.41;;;6.17;100.00
20444;BME280;10381;53.730;10.010;2023-03-25T21:14:20;99633.84;;;6.19;100.00
20444;BME280;10381;53.730;10.010;2023-03-25T21:18:21;99637.59;;;6.16;100.00
20444;BME280;10381;53.730;10.010;2023-03-25T21:22:25;99639.25;;;6.17;100.00
20444;BME280;10381;53.730;10.010;2023-03-25T21:26:26;99647.00;;;6.19;100.00
20444;BME280;10381;53.730;10.010;2023-03-25T21:30:27;99648.53;;;6.22;100.00
20444;BME280;10381;53.730;10.010;2023-03-25T21:34:27;99660.16;;;6.19;100.00
20444;BME280;10381;53.730;10.010;2023-03-25T21:38:29;99656.53;;;6.20;100.00
20444;BME280;10381;53.730;10.010;2023-03-25T21:42:30;99667.91;;;6.21;100.00
20444;BME280;10381;53.730;10.010;2023-03-25T21:46:30;99668.03;;;6.19;100.00
20444;BME280;10381;53.730;10.010;2023-03-25T21:50:32;99674.13;;;6.19;100.00
20444;BME280;10381;53.730;10.010;2023-03-25T21:54:35;99669.97;;;6.17;100.00
20444;BME280;10381;53.730;10.010;2023-03-25T21:58:36;99680.22;;;6.20;100.00
20444;BME280;10381;53.730;10.010;2023-03-25T22:02:36;99682.16;;;6.18;100.00
20444;BME280;10381;53.730;10.010;2023-03-25T22:06:36;99689.09;;;6.19;100.00
20444;BME280;10381;53.730;10.010;2023-03-25T22:10:37;99687.16;;;6.21;100.00
20444;BME280;10381;53.730;10.010;2023-03-25T22:14:37;99695.03;;;6.21;100.00
20444;BME280;10381;53.730;10.010;2023-03-25T22:18:38;99693.53;;;6.18;100.00
20444;BME280;10381;53.730;10.010;2023-03-25T22:22:39;99699.31;;;6.22;100.00
20444;BME280;10381;53.730;10.010;2023-03-25T22:26:40;99701.00;;;6.23;100.00
20444;BME280;10381;53.730;10.010;2023-03-25T22:30:43;99706.28;;;6.23;100.00
20444;BME280;10381;53.730;10.010;2023-03-25T22:34:43;99709.84;;;6.22;100.00
20444;BME280;10381;53.730;10.010;2023-03-25T22:38:45;99710.81;;;6.21;100.00
20444;BME280;10381;53.730;10.010;2023-03-25T22:42:46;99717.31;;;6.17;100.00
20444;BME280;10381;53.730;10.010;2023-03-25T22:46:48;99716.47;;;6.16;100.00
20444;BME280;10381;53.730;10.010;2023-03-25T22:50:48;99722.13;;;6.12;100.00
20444;BME280;10381;53.730;10.010;2023-03-25T22:54:48;99736.13;;;6.12;100.00
20444;BME280;10381;53.730;10.010;2023-03-25T22:58:52;99730.72;;;6.14;100.00
20444;BME280;10381;53.730;10.010;2023-03-25T23:02:52;99736.44;;;6.19;100.00
20444;BME280;10381;53.730;10.010;2023-03-25T23:06:53;99742.50;;;6.19;100.00
20444;BME280;10381;53.730;10.010;2023-03-25T23:10:53;99739.06;;;6.19;100.00
20444;BME280;10381;53.730;10.010;2023-03-25T23:14:55;99732.66;;;6.12;100.00
20444;BME280;10381;53.730;10.010;2023-03-25T23:18:56;99740.28;;;6.15;100.00
20444;BME280;10381;53.730;10.010;2023-03-25T23:22:56;99752.16;;;6.09;100.00
20444;BME280;10381;53.730;10.010;2023-03-25T23:26:57;99752.28;;;6.08;100.00
20444;BME280;10381;53.730;10.010;2023-03-25T23:30:57;99756.22;;;6.13;100.00
20444;BME280;10381;53.730;10.010;2023-03-25T23:34:57;99765.75;;;6.14;100.00
20444;BME280;10381;53.730;10.010;2023-03-25T23:38:58;99777.53;;;6.20;100.00
20444;BME280;10381;53.730;10.010;2023-03-25T23:42:59;99771.31;;;6.21;100.00